createdAt,value
2018-04-19T00:00:09.585Z,49.10
2018-04-19T00:02:35.989Z,48.90
2018-04-19T00:05:02.248Z,49.00
2018-04-19T00:07:28.540Z,49.40
2018-04-19T00:09:54.779Z,49.60
2018-04-19T00:12:21.110Z,50.00
2018-04-19T00:14:47.357Z,49.70
2018-04-19T00:17:13.627Z,50.00
2018-04-19T00:19:40.226Z,49.80
2018-04-19T00:22:06.559Z,50.30
2018-04-19T00:24:32.960Z,50.50
2018-04-19T00:26:59.294Z,50.40
2018-04-19T00:29:25.586Z,50.80
2018-04-19T00:31:51.940Z,50.70
2018-04-19T00:34:18.231Z,50.80
2018-04-19T00:36:44.495Z,50.80
2018-04-19T00:39:11.595Z,51.50
2018-04-19T00:41:37.807Z,51.50
2018-04-19T00:44:04.096Z,51.60
2018-04-19T00:46:30.440Z,51.70
2018-04-19T00:48:56.743Z,51.60
2018-04-19T00:51:23.389Z,51.70
2018-04-19T00:53:49.850Z,52.10
2018-04-19T00:56:16.289Z,52.20
2018-04-19T00:58:42.952Z,52.40
2018-04-19T01:01:09.723Z,52.40
2018-04-19T01:03:36.059Z,52.40
2018-04-19T01:06:02.333Z,52.50
2018-04-19T01:08:28.729Z,52.50
2018-04-19T01:10:55.011Z,52.40
2018-04-19T01:13:21.295Z,52.70
2018-04-19T01:15:48.288Z,52.50
2018-04-19T01:18:14.507Z,52.50
2018-04-19T01:20:40.842Z,52.50
2018-04-19T01:23:07.171Z,52.60
2018-04-19T01:25:33.416Z,52.50
2018-04-19T01:27:59.613Z,52.30
2018-04-19T01:30:26.194Z,52.40
2018-04-19T01:32:53.160Z,52.50
2018-04-19T01:35:19.546Z,52.50
2018-04-19T01:37:46.236Z,52.30
2018-04-19T01:40:12.564Z,52.40
2018-04-19T01:42:38.926Z,52.30
2018-04-19T01:45:07.690Z,52.30
2018-04-19T01:47:33.960Z,52.40
2018-04-19T01:50:00.341Z,52.30
2018-04-19T01:52:26.647Z,52.40
2018-04-19T01:54:52.973Z,52.30
2018-04-19T01:57:19.366Z,52.30
2018-04-19T01:59:46.299Z,51.80
2018-04-19T02:02:12.572Z,51.70
2018-04-19T02:04:38.809Z,51.60
2018-04-19T02:07:06.329Z,50.70
2018-04-19T02:09:32.513Z,50.70
2018-04-19T02:11:58.788Z,50.30
2018-04-19T02:14:25.171Z,49.80
2018-04-19T02:16:51.426Z,49.60
2018-04-19T02:19:17.829Z,49.50
2018-04-19T02:21:44.037Z,49.40
2018-04-19T02:24:11.197Z,49.10
2018-04-19T02:26:37.555Z,49.10
2018-04-19T02:29:03.881Z,49.00
2018-04-19T02:31:30.855Z,49.20
2018-04-19T02:33:57.131Z,49.20
2018-04-19T02:36:23.426Z,49.30
2018-04-19T02:38:50.444Z,49.20
2018-04-19T02:41:17.012Z,49.10
2018-04-19T02:43:44.006Z,48.70
2018-04-19T02:46:11.047Z,49.00
2018-04-19T02:48:37.424Z,48.90
2018-04-19T02:51:03.664Z,49.20
2018-04-19T02:53:30.034Z,49.30
2018-04-19T02:55:56.453Z,49.40
2018-04-19T02:58:23.133Z,49.50
2018-04-19T03:00:49.472Z,49.80
2018-04-19T03:03:17.677Z,49.80
2018-04-19T03:05:44.347Z,50.10
2018-04-19T03:08:12.209Z,50.40
2018-04-19T03:10:38.547Z,50.30
2018-04-19T03:13:04.941Z,50.50
2018-04-19T03:15:31.206Z,50.70
2018-04-19T03:17:57.454Z,50.70
2018-04-19T03:20:23.821Z,51.10
2018-04-19T03:22:50.036Z,51.20
2018-04-19T03:25:16.291Z,51.30
2018-04-19T03:27:42.906Z,51.50
2018-04-19T03:30:09.999Z,51.80
2018-04-19T03:32:38.388Z,51.80
2018-04-19T03:35:04.666Z,51.90
2018-04-19T03:37:30.931Z,52.10
2018-04-19T03:39:58.108Z,52.10
2018-04-19T03:42:25.448Z,52.20
2018-04-19T03:44:51.791Z,52.60
2018-04-19T03:47:22.359Z,53.10
2018-04-19T03:49:48.652Z,53.00
2018-04-19T03:52:14.928Z,53.20
2018-04-19T03:54:41.204Z,53.40
2018-04-19T03:57:07.503Z,53.30
2018-04-19T03:59:33.792Z,53.50
2018-04-19T04:02:00.044Z,53.80
2018-04-19T04:04:26.336Z,53.40
2018-04-19T04:06:52.685Z,53.70
2018-04-19T04:09:20.072Z,53.90
2018-04-19T04:11:46.388Z,54.00
2018-04-19T04:14:12.702Z,54.30
2018-04-19T04:16:51.256Z,54.30
2018-04-19T04:19:29.880Z,54.30
2018-04-19T04:22:08.524Z,54.20
2018-04-19T04:24:34.977Z,53.70
2018-04-19T04:27:02.019Z,54.50
2018-04-19T04:29:28.424Z,54.50
2018-04-19T04:31:54.716Z,54.40
2018-04-19T04:34:21.647Z,54.30
2018-04-19T04:36:48.852Z,54.30
2018-04-19T04:39:15.068Z,54.30
2018-04-19T04:41:41.335Z,54.60
2018-04-19T04:44:07.630Z,54.70
2018-04-19T04:46:33.866Z,55.30
2018-04-19T04:49:00.839Z,54.40
2018-04-19T04:51:28.151Z,54.30
2018-04-19T04:53:54.471Z,54.40
2018-04-19T04:56:21.524Z,54.60
2018-04-19T04:58:47.724Z,54.40
2018-04-19T05:01:14.051Z,54.50
2018-04-19T05:03:49.120Z,54.50
2018-04-19T05:06:15.565Z,54.00
2018-04-19T05:08:41.812Z,54.50
2018-04-19T05:11:08.795Z,53.40
2018-04-19T05:13:35.114Z,53.40
2018-04-19T05:16:01.377Z,53.10
2018-04-19T05:18:27.643Z,53.40
2018-04-19T05:20:53.936Z,53.40
2018-04-19T05:23:20.198Z,52.80
2018-04-19T05:25:46.427Z,52.90
2018-04-19T05:28:12.845Z,52.70
2018-04-19T05:30:39.315Z,52.20
2018-04-19T05:33:05.576Z,52.10
2018-04-19T05:35:46.508Z,52.00
2018-04-19T05:38:13.565Z,51.70
2018-04-19T05:40:41.834Z,51.60
2018-04-19T05:43:09.126Z,51.50
2018-04-19T05:45:46.389Z,50.70
2018-04-19T05:48:12.653Z,50.60
2018-04-19T05:50:39.022Z,50.30
2018-04-19T05:53:05.470Z,50.70
2018-04-19T05:55:35.035Z,49.90
2018-04-19T05:58:01.354Z,49.70
2018-04-19T06:00:27.608Z,49.40
2018-04-19T06:02:53.848Z,48.90
2018-04-19T06:05:20.171Z,48.30
2018-04-19T06:07:46.820Z,48.00
2018-04-19T06:10:13.035Z,47.70
2018-04-19T06:12:39.310Z,46.80
2018-04-19T06:15:07.575Z,46.80
2018-04-19T06:17:41.231Z,45.50
2018-04-19T06:20:07.590Z,45.40
2018-04-19T06:22:33.824Z,44.30
2018-04-19T06:25:00.792Z,44.00
2018-04-19T06:27:27.091Z,43.70
2018-04-19T06:29:57.500Z,43.10
2018-04-19T06:32:24.728Z,41.90
2018-04-19T06:34:51.153Z,42.40
2018-04-19T06:37:17.443Z,41.80
2018-04-19T06:39:46.277Z,40.90
2018-04-19T06:42:12.540Z,41.30
2018-04-19T06:44:38.980Z,41.40
2018-04-19T06:47:05.413Z,41.70
2018-04-19T06:49:31.722Z,40.70
2018-04-19T06:51:58.063Z,39.90
2018-04-19T06:54:24.286Z,39.40
2018-04-19T06:56:50.583Z,39.20
2018-04-19T06:59:17.573Z,38.60
2018-04-19T07:01:43.841Z,38.60
2018-04-19T07:04:10.108Z,38.80
2018-04-19T07:06:36.518Z,38.80
2018-04-19T07:09:02.998Z,37.30
2018-04-19T07:11:29.206Z,35.90
2018-04-19T07:13:55.459Z,35.00
2018-04-19T07:16:21.878Z,35.30
2018-04-19T07:18:48.276Z,35.20
2018-04-19T07:21:15.323Z,34.30
2018-04-19T07:23:42.035Z,34.20
2018-04-19T07:26:08.295Z,33.20
2018-04-19T07:28:35.202Z,32.30
2018-04-19T07:31:01.608Z,31.80
2018-04-19T07:33:27.922Z,31.80
2018-04-19T07:35:54.174Z,31.40
2018-04-19T07:38:20.404Z,31.10
2018-04-19T07:40:46.706Z,31.00
2018-04-19T07:43:13.646Z,30.30
2018-04-19T07:45:39.880Z,30.30
2018-04-19T07:48:06.129Z,30.70
2018-04-19T07:50:32.384Z,30.90
2018-04-19T07:52:58.670Z,30.30
2018-04-19T07:55:24.919Z,30.50
2018-04-19T07:57:51.299Z,30.60
2018-04-19T08:00:17.540Z,30.40
2018-04-19T08:02:43.839Z,30.60
2018-04-19T08:05:10.108Z,30.40
2018-04-19T08:07:36.480Z,30.50
2018-04-19T08:10:04.760Z,30.60
2018-04-19T08:12:31.012Z,30.40
2018-04-19T08:14:57.287Z,30.60
2018-04-19T08:17:24.431Z,29.80
2018-04-19T08:19:51.590Z,30.00
2018-04-19T08:22:18.689Z,30.00
2018-04-19T08:24:44.986Z,30.00
2018-04-19T08:27:11.294Z,29.40
2018-04-19T08:29:37.929Z,29.60
2018-04-19T08:32:06.644Z,28.70
2018-04-19T08:34:32.905Z,29.40
2018-04-19T08:36:59.297Z,28.30
2018-04-19T08:39:25.813Z,28.30
2018-04-19T08:41:52.767Z,28.10
2018-04-19T08:44:18.978Z,28.10
2018-04-19T08:46:45.519Z,27.90
2018-04-19T08:49:11.729Z,27.80
2018-04-19T08:51:39.316Z,27.10
2018-04-19T08:54:05.536Z,27.10
2018-04-19T08:56:32.730Z,26.70
2018-04-19T08:58:58.950Z,26.70
2018-04-19T09:01:25.147Z,26.60
2018-04-19T09:03:51.373Z,26.40
2018-04-19T09:06:17.611Z,26.60
2018-04-19T09:08:43.940Z,26.80
2018-04-19T09:11:10.202Z,26.50
2018-04-19T09:13:36.454Z,26.40
2018-04-19T09:16:02.719Z,25.90
2018-04-19T09:18:29.791Z,25.40
2018-04-19T09:20:56.028Z,25.40
2018-04-19T09:23:22.986Z,24.80
2018-04-19T09:25:50.007Z,25.20
2018-04-19T09:28:16.380Z,25.20
2018-04-19T09:30:42.719Z,24.40
2018-04-19T09:33:08.980Z,24.50
2018-04-19T09:35:35.213Z,24.50
2018-04-19T09:38:02.367Z,23.40
2018-04-19T09:40:28.885Z,23.40
2018-04-19T09:42:55.104Z,24.20
2018-04-19T09:45:22.340Z,23.70
2018-04-19T09:47:48.757Z,23.60
2018-04-19T09:50:14.982Z,23.30
2018-04-19T09:52:41.173Z,23.30
2018-04-19T09:55:08.439Z,23.20
2018-04-19T09:57:35.137Z,23.20
2018-04-19T10:00:01.370Z,21.60
2018-04-19T10:02:28.821Z,22.60
2018-04-19T10:05:00.986Z,22.80
2018-04-19T10:07:27.307Z,22.40
2018-04-19T10:09:54.299Z,22.20
2018-04-19T10:12:21.772Z,22.20
2018-04-19T10:14:49.493Z,21.90
2018-04-19T10:17:16.442Z,21.00
2018-04-19T10:19:43.529Z,21.50
2018-04-19T10:22:10.549Z,20.50
2018-04-19T10:24:36.936Z,20.40
2018-04-19T10:27:03.299Z,20.20
2018-04-19T10:29:29.763Z,19.60
2018-04-19T10:31:55.986Z,20.70
2018-04-19T10:34:22.267Z,20.90
2018-04-19T10:36:48.804Z,20.10
2018-04-19T10:39:15.057Z,19.40
2018-04-19T10:41:41.356Z,19.20
2018-04-19T10:44:07.636Z,18.80
2018-04-19T10:46:33.920Z,18.20
2018-04-19T10:49:00.237Z,18.60
2018-04-19T10:51:26.458Z,18.30
2018-04-19T10:53:52.830Z,17.90
2018-04-19T10:56:19.896Z,17.70
2018-04-19T10:58:46.102Z,17.50
2018-04-19T11:01:12.551Z,16.30
2018-04-19T11:03:38.944Z,15.80
2018-04-19T11:06:05.201Z,15.50
2018-04-19T11:08:31.404Z,15.90
2018-04-19T11:10:57.647Z,15.70
2018-04-19T11:13:24.213Z,15.10
2018-04-19T11:15:51.275Z,15.70
2018-04-19T11:18:18.333Z,14.80
2018-04-19T11:20:45.192Z,14.70
2018-04-19T11:23:11.384Z,13.90
2018-04-19T11:25:38.451Z,14.90
2018-04-19T11:28:04.651Z,14.50
2018-04-19T11:30:31.645Z,13.70
2018-04-19T11:32:58.053Z,13.70
2018-04-19T11:35:24.483Z,14.60
2018-04-19T11:37:50.877Z,13.90
2018-04-19T11:40:17.105Z,12.80
2018-04-19T11:42:43.355Z,12.50
2018-04-19T11:45:09.698Z,12.50
2018-04-19T11:47:36.035Z,11.90
2018-04-19T11:50:02.402Z,11.50
2018-04-19T11:52:28.658Z,11.40
2018-04-19T11:54:56.939Z,11.50
2018-04-19T11:57:23.247Z,11.60
2018-04-19T11:59:49.785Z,11.60
2018-04-19T12:02:16.740Z,9.40
2018-04-19T12:04:43.054Z,9.80
2018-04-19T12:07:10.149Z,9.90
2018-04-19T12:09:41.889Z,9.60
2018-04-19T12:12:08.304Z,8.90
2018-04-19T12:14:34.776Z,8.20
2018-04-19T12:17:04.177Z,8.20
2018-04-19T12:22:32.979Z,7.30
2018-04-19T12:24:59.678Z,7.40
2018-04-19T12:27:28.111Z,6.70
2018-04-19T12:29:54.363Z,6.70
2018-04-19T12:32:20.836Z,6.50
2018-04-19T12:34:47.120Z,5.90
2018-04-19T12:37:13.375Z,6.20
2018-04-19T12:39:39.615Z,5.70
2018-04-19T12:42:06.660Z,4.90
2018-04-19T12:44:33.395Z,4.90
2018-04-19T12:46:59.826Z,5.40
2018-04-19T12:49:26.274Z,5.00
2018-04-19T12:51:53.014Z,5.00
2018-04-19T12:54:19.432Z,5.00
2018-04-19T12:56:45.725Z,5.10
2018-04-19T12:59:12.016Z,5.20
2018-04-19T13:01:40.015Z,5.20
2018-04-19T13:04:11.015Z,5.20
2018-04-19T13:06:37.519Z,5.20
2018-04-19T13:09:03.842Z,4.70
2018-04-19T13:11:30.147Z,5.40
2018-04-19T13:13:56.687Z,4.50
2018-04-19T13:16:22.972Z,4.30
2018-04-19T13:18:49.401Z,5.10
2018-04-19T13:21:16.364Z,5.20
2018-04-19T13:23:43.455Z,4.30
2018-04-19T13:26:10.101Z,4.20
2018-04-19T13:28:36.834Z,4.00
2018-04-19T13:31:03.104Z,3.90
2018-04-19T13:33:29.951Z,3.50
2018-04-19T13:35:56.176Z,3.40
2018-04-19T13:38:23.318Z,3.30
2018-04-19T13:40:50.912Z,3.70
2018-04-19T13:43:17.159Z,3.60
2018-04-19T13:45:45.019Z,4.60
2018-04-19T13:48:11.298Z,4.50
2018-04-19T13:50:37.543Z,3.40
2018-04-19T13:53:03.821Z,3.60
2018-04-19T13:55:30.248Z,4.00
2018-04-19T13:57:56.526Z,3.40
2018-04-19T14:00:23.144Z,3.60
2018-04-19T14:02:49.388Z,4.50
2018-04-19T14:05:15.739Z,3.70
2018-04-19T14:07:42.108Z,4.20
2018-04-19T14:10:10.464Z,4.10
2018-04-19T14:12:37.798Z,3.90
2018-04-19T14:15:05.180Z,4.20
2018-04-19T14:17:31.787Z,4.10
2018-04-19T14:19:59.129Z,4.60
2018-04-19T14:22:26.564Z,4.60
2018-04-19T14:24:54.983Z,4.40
2018-04-19T14:27:31.288Z,4.70
2018-04-19T14:29:58.824Z,4.50
2018-04-19T14:32:25.112Z,5.00
2018-04-19T14:34:51.403Z,5.40
2018-04-19T14:37:19.181Z,4.90
2018-04-19T14:39:46.471Z,5.30
2018-04-19T14:42:12.725Z,5.20
2018-04-19T14:44:39.023Z,5.60
2018-04-19T14:47:05.317Z,5.20
2018-04-19T14:49:31.555Z,5.10
2018-04-19T14:51:57.783Z,5.20
2018-04-19T14:54:24.082Z,6.00
2018-04-19T14:56:50.460Z,5.50
2018-04-19T14:59:17.816Z,5.00
2018-04-19T15:01:44.133Z,6.20
2018-04-19T15:04:10.407Z,6.10
2018-04-19T15:06:36.656Z,5.80
2018-04-19T15:09:03.091Z,5.40
2018-04-19T15:11:29.317Z,4.50
2018-04-19T15:13:55.709Z,5.20
2018-04-19T15:16:22.013Z,5.30
2018-04-19T15:18:48.251Z,5.60
2018-04-19T15:21:14.609Z,5.60
2018-04-19T15:23:41.623Z,5.60
2018-04-19T15:26:07.929Z,6.10
2018-04-19T15:28:34.751Z,5.90
2018-04-19T15:31:01.047Z,5.90
2018-04-19T15:33:29.000Z,5.20
2018-04-19T15:35:57.665Z,5.40
2018-04-19T15:38:30.340Z,5.60
2018-04-19T15:41:01.130Z,4.60
2018-04-19T15:46:32.033Z,4.40
2018-04-19T15:48:58.498Z,4.40
2018-04-19T15:51:31.576Z,4.20
2018-04-19T15:54:27.673Z,3.80
2018-04-19T15:56:54.450Z,3.50
2018-04-19T15:59:22.183Z,4.00
2018-04-19T16:02:00.290Z,4.30
2018-04-19T16:07:28.952Z,3.80
2018-04-19T16:10:06.564Z,3.50
2018-04-19T16:12:37.080Z,3.50
2018-04-19T16:15:08.317Z,3.40
2018-04-19T16:17:35.199Z,3.50
2018-04-19T16:20:01.879Z,7.70
2018-04-19T16:22:28.479Z,5.00
2018-04-19T16:24:55.970Z,3.90
2018-04-19T16:27:24.220Z,3.50
2018-04-19T16:29:51.657Z,3.50
2018-04-19T16:32:17.966Z,3.80
2018-04-19T16:34:44.186Z,3.70
2018-04-19T16:37:10.414Z,4.10
2018-04-19T16:39:36.620Z,4.50
2018-04-19T16:42:03.003Z,4.60
2018-04-19T16:44:29.252Z,4.70
2018-04-19T16:46:55.721Z,4.90
2018-04-19T16:49:21.962Z,4.60
2018-04-19T16:51:49.173Z,4.50
2018-04-19T16:54:15.518Z,5.40
2018-04-19T16:56:42.096Z,5.10
2018-04-19T16:59:09.493Z,5.20
2018-04-19T17:01:35.666Z,4.60
2018-04-19T17:04:02.421Z,4.10
2018-04-19T17:06:28.699Z,5.00
2018-04-19T17:08:54.935Z,6.00
2018-04-19T17:11:22.256Z,5.40
2018-04-19T17:13:49.275Z,4.80
2018-04-19T17:16:15.527Z,4.70
2018-04-19T17:18:41.755Z,5.20
2018-04-19T17:21:08.924Z,5.50
2018-04-19T17:23:35.139Z,5.30
2018-04-19T17:26:01.391Z,6.50
2018-04-19T17:28:27.638Z,6.10
2018-04-19T17:30:53.901Z,6.50
2018-04-19T17:33:20.252Z,6.90
2018-04-19T17:35:47.315Z,6.50
2018-04-19T17:38:13.629Z,6.80
2018-04-19T17:40:40.689Z,6.60
2018-04-19T17:43:06.990Z,7.70
2018-04-19T17:45:33.469Z,7.70
2018-04-19T17:47:59.857Z,7.20
2018-04-19T17:50:26.118Z,7.40
2018-04-19T17:55:24.384Z,9.30
2018-04-19T17:57:50.790Z,10.20
2018-04-19T18:00:17.169Z,10.60
2018-04-19T18:02:43.412Z,10.90
2018-04-19T18:05:09.781Z,10.90
2018-04-19T18:07:36.008Z,10.80
2018-04-19T18:10:02.380Z,11.90
2018-04-19T18:12:29.374Z,12.10
2018-04-19T18:14:55.704Z,12.00
2018-04-19T18:17:21.944Z,13.00
2018-04-19T18:19:48.145Z,14.10
2018-04-19T18:22:14.407Z,14.40
2018-04-19T18:24:40.730Z,15.60
2018-04-19T18:27:07.017Z,15.50
2018-04-19T18:29:33.250Z,15.00
2018-04-19T18:31:59.684Z,15.80
2018-04-19T18:34:26.667Z,17.10
2018-04-19T18:36:52.988Z,17.00
2018-04-19T18:39:19.251Z,17.00
2018-04-19T18:41:45.498Z,16.80
2018-04-19T18:44:11.795Z,17.90
2018-04-19T18:46:38.153Z,17.70
2018-04-19T18:49:05.309Z,18.60
2018-04-19T18:51:32.271Z,18.90
2018-04-19T18:53:58.892Z,18.60
2018-04-19T18:56:25.286Z,19.20
2018-04-19T18:58:51.612Z,20.00
2018-04-19T19:01:17.885Z,20.70
2018-04-19T19:03:44.088Z,21.30
2018-04-19T19:06:10.458Z,22.00
2018-04-19T19:08:36.895Z,21.90
2018-04-19T19:11:03.922Z,22.90
2018-04-19T19:13:30.289Z,22.80
2018-04-19T19:16:12.170Z,23.90
2018-04-19T19:18:50.592Z,23.90
2018-04-19T19:21:16.834Z,23.80
2018-04-19T19:23:43.276Z,23.70
2018-04-19T19:26:09.497Z,23.70
2018-04-19T19:28:35.741Z,24.30
2018-04-19T19:31:02.184Z,24.20
2018-04-19T19:33:28.565Z,24.70
2018-04-19T19:35:54.831Z,25.30
2018-04-19T19:38:21.173Z,26.20
2018-04-19T19:40:48.249Z,26.00
2018-04-19T19:43:14.525Z,26.00
2018-04-19T19:45:40.729Z,26.60
2018-04-19T19:48:08.700Z,26.70
2018-04-19T19:50:34.928Z,26.70
2018-04-19T19:53:01.263Z,27.00
2018-04-19T19:55:28.371Z,27.50
2018-04-19T19:57:54.759Z,27.50
2018-04-19T20:00:21.192Z,27.50
2018-04-19T20:02:47.458Z,27.70
2018-04-19T20:05:13.678Z,27.30
2018-04-19T20:07:39.871Z,27.30
2018-04-19T20:10:07.867Z,28.00
2018-04-19T20:12:34.184Z,28.00
2018-04-19T20:15:01.377Z,28.50
2018-04-19T20:17:27.652Z,28.40
2018-04-19T20:19:53.892Z,28.70
2018-04-19T20:22:20.150Z,28.90
2018-04-19T20:24:46.579Z,28.90
2018-04-19T20:27:12.908Z,29.60
2018-04-19T20:29:39.477Z,29.20
2018-04-19T20:32:05.808Z,29.10
2018-04-19T20:34:32.996Z,29.70
2018-04-19T20:36:59.809Z,30.00
2018-04-19T20:39:26.074Z,30.00
2018-04-19T20:41:53.376Z,30.30
2018-04-19T20:44:19.670Z,29.90
2018-04-19T20:46:46.859Z,30.00
2018-04-19T20:49:13.175Z,30.30
2018-04-19T20:51:40.445Z,30.80
2018-04-19T20:54:06.841Z,31.40
2018-04-19T20:56:35.484Z,30.70
2018-04-19T20:59:01.821Z,31.30
2018-04-19T21:01:28.119Z,31.60
2018-04-19T21:03:54.380Z,32.20
2018-04-19T21:06:21.999Z,33.30
2018-04-19T21:08:48.331Z,32.50
2018-04-19T21:11:14.672Z,32.90
2018-04-19T21:13:40.929Z,33.40
2018-04-19T21:16:07.303Z,33.50
2018-04-19T21:18:33.600Z,33.70
2018-04-19T21:21:01.905Z,34.00
2018-04-19T21:23:28.240Z,34.10
2018-04-19T21:25:54.516Z,34.40
2018-04-19T21:28:20.772Z,34.50
2018-04-19T21:30:47.131Z,34.40
2018-04-19T21:33:13.521Z,34.50
2018-04-19T21:35:39.960Z,34.90
2018-04-19T21:38:06.223Z,34.50
2018-04-19T21:40:32.463Z,34.90
2018-04-19T21:42:59.754Z,35.20
2018-04-19T21:45:26.024Z,35.20
2018-04-19T21:47:52.259Z,35.60
2018-04-19T21:50:18.727Z,36.10
2018-04-19T21:52:45.402Z,35.80
2018-04-19T21:55:12.091Z,36.10
2018-04-19T21:57:39.398Z,36.30
2018-04-19T22:00:05.696Z,36.20
2018-04-19T22:02:31.953Z,36.40
2018-04-19T22:04:58.382Z,36.20
2018-04-19T22:07:24.791Z,37.10
2018-04-19T22:09:51.088Z,36.80
2018-04-19T22:12:17.439Z,37.20
2018-04-19T22:14:44.549Z,37.30
2018-04-19T22:17:10.862Z,37.30
2018-04-19T22:19:37.155Z,37.40
2018-04-19T22:22:03.582Z,37.80
2018-04-19T22:24:29.852Z,37.30
2018-04-19T22:26:56.828Z,37.80
2018-04-19T22:29:23.170Z,37.80
2018-04-19T22:31:49.421Z,37.80
2018-04-19T22:34:15.618Z,37.90
2018-04-19T22:36:41.914Z,37.90
2018-04-19T22:39:09.956Z,37.90
2018-04-19T22:41:38.088Z,38.20
2018-04-19T22:44:04.368Z,38.20
2018-04-19T22:46:30.927Z,38.60
2018-04-19T22:48:57.609Z,39.20
2018-04-19T22:51:23.899Z,39.50
2018-04-19T22:53:50.194Z,39.80
2018-04-19T22:56:17.207Z,39.70
2018-04-19T22:58:43.464Z,39.70
2018-04-19T23:01:09.725Z,40.00
2018-04-19T23:03:35.948Z,38.90
2018-04-19T23:06:02.162Z,39.30
2018-04-19T23:08:28.423Z,39.20
2018-04-19T23:10:54.729Z,39.20
2018-04-19T23:13:20.991Z,39.10
2018-04-19T23:15:47.572Z,39.20
2018-04-19T23:18:14.116Z,38.90
2018-04-19T23:20:40.719Z,38.90
2018-04-19T23:23:07.260Z,39.40
2018-04-19T23:25:33.508Z,39.10
2018-04-19T23:27:59.815Z,39.20
2018-04-19T23:30:26.003Z,39.70
2018-04-19T23:32:53.253Z,39.60
2018-04-19T23:35:19.623Z,40.10
2018-04-19T23:37:45.899Z,40.00
2018-04-19T23:40:12.120Z,40.20
2018-04-19T23:42:38.383Z,40.00
2018-04-19T23:45:04.769Z,39.90
2018-04-19T23:47:31.060Z,39.80
2018-04-19T23:49:57.290Z,39.70
2018-04-19T23:52:23.611Z,40.00
2018-04-19T23:54:49.920Z,40.30
2018-04-19T23:57:16.900Z,40.20
2018-04-19T23:59:43.127Z,40.20
